Time;durP1;ratioP1;P1;durP2;ratioP2;P2;SDS_P1;SDS_P2;PMS_P1;PMS_P2;Temp;Humidity;BMP_temperature;BMP_pressure;BME280_temperature;BME280_humidity;BME280_pressure;Samples;Min_cycle;Max_cycle;Signal;HPM_P1;HPM_P2
2022/01/31 00:01:14;;;;;;;7.75;2.13;;;;;;;;;;5069763;28;20552;-67
2022/01/31 00:03:40;;;;;;;5.97;1.70;;;;;;;;;;5068684;28;20043;-67
2022/01/31 00:06:06;;;;;;;6.68;2.00;;;;;;;;;;5070125;28;20468;-68
2022/01/31 00:08:32;;;;;;;5.72;1.83;;;;;;;;;;5068074;28;20033;-68
2022/01/31 00:10:58;;;;;;;6.88;1.70;;;;;;;;;;5052861;28;20293;-67
2022/01/31 00:13:38;;;;;;;7.35;2.05;;;;;;;;;;5049537;28;20139;-68
2022/01/31 00:16:05;;;;;;;5.43;1.52;;;;;;;;;;5049302;28;20056;-67
2022/01/31 00:18:30;;;;;;;5.50;1.58;;;;;;;;;;5048962;28;20052;-67
2022/01/31 00:20:57;;;;;;;6.55;1.80;;;;;;;;;;5049527;28;20055;-68
2022/01/31 00:23:23;;;;;;;4.82;1.60;;;;;;;;;;5050482;28;20509;-67
2022/01/31 00:25:49;;;;;;;5.95;1.60;;;;;;;;;;5049223;28;20049;-68
2022/01/31 00:28:15;;;;;;;4.63;1.48;;;;;;;;;;5048438;28;20056;-68
2022/01/31 00:30:41;;;;;;;5.70;1.90;;;;;;;;;;5049459;28;20511;-68
2022/01/31 00:33:07;;;;;;;7.60;1.80;;;;;;;;;;5061042;28;20132;-67
2022/01/31 00:35:33;;;;;;;6.28;1.80;;;;;;;;;;5068681;28;20110;-67
2022/01/31 00:37:59;;;;;;;5.53;1.45;;;;;;;;;;5069253;28;20426;-67
2022/01/31 00:40:25;;;;;;;5.07;1.52;;;;;;;;;;5068615;28;20067;-67
2022/01/31 00:42:51;;;;;;;5.78;1.45;;;;;;;;;;5069228;28;20414;-67
2022/01/31 00:45:26;;;;;;;6.10;1.70;;;;;;;;;;5063773;28;20084;-67
2022/01/31 00:48:03;;;;;;;5.60;1.65;;;;;;;;;;5048235;28;20041;-67
2022/01/31 00:50:36;;;;;;;6.00;1.70;;;;;;;;;;5049000;28;20494;-67
2022/01/31 00:53:02;;;;;;;8.75;2.53;;;;;;;;;;5048890;28;20049;-67
2022/01/31 00:55:28;;;;;;;4.43;1.35;;;;;;;;;;5048921;28;20098;-67
2022/01/31 00:57:54;;;;;;;8.48;1.80;;;;;;;;;;5047210;28;20053;-68
2022/01/31 01:00:20;;;;;;;6.85;1.60;;;;;;;;;;5048272;28;20143;-67
2022/01/31 01:02:47;;;;;;;15.57;1.63;;;;;;;;;;5048831;28;20045;-68
2022/01/31 01:05:13;;;;;;;4.75;1.75;;;;;;;;;;5062266;28;20449;-67
2022/01/31 01:07:39;;;;;;;7.32;1.60;;;;;;;;;;5068500;28;20425;-67
2022/01/31 01:10:06;;;;;;;5.25;1.73;;;;;;;;;;5055599;28;20037;-69
2022/01/31 01:12:32;;;;;;;6.75;1.50;;;;;;;;;;5048353;28;20132;-69
2022/01/31 01:14:58;;;;;;;5.75;1.92;;;;;;;;;;5048293;28;20052;-69
2022/01/31 01:17:24;;;;;;;6.60;1.70;;;;;;;;;;5048121;28;20056;-68
2022/01/31 01:19:50;;;;;;;4.88;1.67;;;;;;;;;;5048623;28;20045;-68
2022/01/31 01:22:16;;;;;;;6.80;1.88;;;;;;;;;;5048340;28;20091;-68
2022/01/31 01:24:42;;;;;;;9.45;1.88;;;;;;;;;;5048361;28;20052;-68
2022/01/31 01:27:08;;;;;;;5.15;1.58;;;;;;;;;;5048676;28;20045;-68
2022/01/31 01:29:35;;;;;;;6.13;1.52;;;;;;;;;;5048213;28;20045;-68
2022/01/31 01:32:01;;;;;;;5.45;1.42;;;;;;;;;;5047537;28;20056;-69
2022/01/31 01:34:31;;;;;;;5.53;1.70;;;;;;;;;;5048478;28;20114;-69
2022/01/31 01:36:57;;;;;;;4.53;1.40;;;;;;;;;;5048013;28;20303;-68
2022/01/31 01:39:24;;;;;;;4.78;1.92;;;;;;;;;;5047949;28;20139;-68
2022/01/31 01:41:51;;;;;;;5.13;1.63;;;;;;;;;;5064488;28;20052;-68
2022/01/31 01:44:17;;;;;;;4.18;1.55;;;;;;;;;;5068497;28;20627;-68
2022/01/31 01:46:43;;;;;;;4.28;1.27;;;;;;;;;;5067324;28;20056;-69
2022/01/31 01:49:09;;;;;;;5.40;1.75;;;;;;;;;;5067583;28;20123;-69
2022/01/31 01:51:37;;;;;;;6.18;1.85;;;;;;;;;;5068085;28;20399;-69
2022/01/31 01:54:03;;;;;;;5.38;1.38;;;;;;;;;;5067840;28;20055;-68
2022/01/31 01:56:29;;;;;;;6.70;1.38;;;;;;;;;;5062646;28;20060;-68
2022/01/31 01:58:56;;;;;;;4.55;1.73;;;;;;;;;;5069910;28;20049;-68
2022/01/31 02:01:22;;;;;;;4.35;1.40;;;;;;;;;;5070952;28;20056;-68
2022/01/31 02:03:49;;;;;;;4.35;1.50;;;;;;;;;;5072313;28;20048;-68
2022/01/31 02:06:15;;;;;;;4.43;1.63;;;;;;;;;;5072108;28;20048;-68
2022/01/31 02:08:43;;;;;;;2.90;1.05;;;;;;;;;;5071719;28;20048;-68
2022/01/31 02:11:11;;;;;;;5.15;1.83;;;;;;;;;;5055080;28;20059;-68
2022/01/31 02:13:37;;;;;;;4.90;1.05;;;;;;;;;;5052076;28;20098;-68
2022/01/31 02:16:04;;;;;;;3.03;1.27;;;;;;;;;;5052101;28;20122;-68
2022/01/31 02:18:30;;;;;;;6.03;1.60;;;;;;;;;;5051629;28;20067;-68
2022/01/31 02:20:56;;;;;;;4.25;1.58;;;;;;;;;;5052151;28;20048;-68
2022/01/31 02:23:23;;;;;;;3.40;1.13;;;;;;;;;;5051530;28;20048;-68
2022/01/31 02:25:53;;;;;;;5.65;1.50;;;;;;;;;;5052078;28;20049;-68
2022/01/31 02:28:19;;;;;;;3.58;1.48;;;;;;;;;;5051719;28;20049;-68
2022/01/31 02:30:45;;;;;;;4.75;1.40;;;;;;;;;;5051480;28;20538;-68
2022/01/31 02:33:11;;;;;;;2.92;1.17;;;;;;;;;;5051485;28;20414;-68
2022/01/31 02:35:37;;;;;;;4.55;1.80;;;;;;;;;;5051601;28;20049;-69
2022/01/31 02:38:03;;;;;;;5.85;1.50;;;;;;;;;;5067566;28;20059;-69
2022/01/31 02:40:30;;;;;;;9.23;1.80;;;;;;;;;;5069944;28;20047;-68
2022/01/31 02:42:56;;;;;;;10.57;1.60;;;;;;;;;;5059630;28;20418;-67
2022/01/31 02:45:22;;;;;;;10.45;1.80;;;;;;;;;;5070554;28;20040;-67
2022/01/31 02:47:54;;;;;;;10.10;1.60;;;;;;;;;;5070910;28;20135;-67
2022/01/31 02:50:20;;;;;;;5.03;1.45;;;;;;;;;;5069833;28;20044;-67
2022/01/31 02:52:49;;;;;;;10.10;1.92;;;;;;;;;;5071330;28;20048;-67
2022/01/31 02:55:15;;;;;;;13.77;3.25;;;;;;;;;;5069458;28;20502;-67
2022/01/31 02:57:42;;;;;;;4.43;1.33;;;;;;;;;;5049441;28;20049;-67
2022/01/31 03:00:09;;;;;;;6.22;1.42;;;;;;;;;;5050393;28;20044;-67
2022/01/31 03:02:35;;;;;;;6.82;1.50;;;;;;;;;;5050589;28;20123;-67
2022/01/31 03:05:01;;;;;;;6.15;1.50;;;;;;;;;;5050538;28;20053;-67
2022/01/31 03:07:27;;;;;;;5.55;1.58;;;;;;;;;;5064090;28;20051;-67
2022/01/31 03:09:53;;;;;;;5.88;1.67;;;;;;;;;;5069428;28;20043;-67
2022/01/31 03:12:19;;;;;;;3.80;1.13;;;;;;;;;;5069174;28;20055;-67
2022/01/31 03:14:45;;;;;;;3.72;1.30;;;;;;;;;;5069575;28;20325;-66
2022/01/31 03:17:12;;;;;;;4.63;1.20;;;;;;;;;;5064477;28;20498;-66
2022/01/31 03:19:40;;;;;;;6.03;1.40;;;;;;;;;;5068457;28;20053;-67
2022/01/31 03:22:06;;;;;;;5.10;1.73;;;;;;;;;;5061326;28;20102;-68
2022/01/31 03:24:33;;;;;;;11.18;1.90;;;;;;;;;;5070551;28;20514;-67
2022/01/31 03:26:59;;;;;;;4.05;1.45;;;;;;;;;;5070951;28;20128;-67
2022/01/31 03:29:25;;;;;;;2.80;1.10;;;;;;;;;;5070870;28;20045;-67
2022/01/31 03:31:51;;;;;;;8.35;1.35;;;;;;;;;;5064182;28;20045;-67
2022/01/31 03:34:17;;;;;;;6.70;2.08;;;;;;;;;;5050585;28;20059;-66
2022/01/31 03:36:43;;;;;;;8.35;2.13;;;;;;;;;;5050431;28;20041;-66
2022/01/31 03:39:10;;;;;;;7.10;1.58;;;;;;;;;;5050302;28;20041;-66
2022/01/31 03:41:36;;;;;;;6.10;1.48;;;;;;;;;;5049777;28;20503;-67
2022/01/31 03:44:02;;;;;;;10.38;1.23;;;;;;;;;;5049200;28;20467;-66
2022/01/31 03:46:30;;;;;;;4.50;1.50;;;;;;;;;;5052629;28;20084;-66
2022/01/31 03:48:56;;;;;;;3.53;1.10;;;;;;;;;;5070231;28;20123;-67
2022/01/31 03:51:22;;;;;;;10.75;1.52;;;;;;;;;;5069874;28;20418;-67
2022/01/31 03:53:48;;;;;;;4.85;1.20;;;;;;;;;;5070423;28;20491;-67
2022/01/31 03:56:14;;;;;;;3.60;1.40;;;;;;;;;;5062211;28;20047;-67
2022/01/31 03:58:40;;;;;;;5.03;1.33;;;;;;;;;;5050022;28;20187;-67
2022/01/31 04:01:06;;;;;;;5.30;1.85;;;;;;;;;;5050139;28;20045;-67
2022/01/31 04:03:34;;;;;;;5.03;1.40;;;;;;;;;;5049384;28;20056;-67
2022/01/31 04:06:00;;;;;;;5.32;1.10;;;;;;;;;;5049335;28;20056;-67
2022/01/31 04:08:26;;;;;;;3.63;1.23;;;;;;;;;;5050019;28;20045;-67
2022/01/31 04:10:52;;;;;;;7.22;1.30;;;;;;;;;;5053248;28;20045;-67
2022/01/31 04:13:18;;;;;;;7.05;1.30;;;;;;;;;;5069277;28;20140;-67
2022/01/31 04:15:45;;;;;;;6.63;1.80;;;;;;;;;;5069466;28;20143;-67
2022/01/31 04:18:11;;;;;;;10.25;1.67;;;;;;;;;;5067680;28;20462;-67
2022/01/31 04:20:37;;;;;;;11.45;1.50;;;;;;;;;;5069416;28;20047;-67
2022/01/31 04:23:09;;;;;;;7.15;1.55;;;;;;;;;;5066984;28;20432;-67
2022/01/31 04:25:51;;;;;;;3.95;1.35;;;;;;;;;;5069293;28;20048;-67
2022/01/31 04:28:24;;;;;;;8.32;1.13;;;;;;;;;;5069321;28;20055;-67
2022/01/31 04:31:13;;;;;;;7.45;2.78;;;;;;;;;;5068186;28;20037;-67
2022/01/31 04:33:38;;;;;;;4.47;1.55;;;;;;;;;;5069147;28;20059;-67
2022/01/31 04:36:04;;;;;;;7.60;1.40;;;;;;;;;;5068457;28;20525;-67
2022/01/31 04:38:30;;;;;;;2.97;1.27;;;;;;;;;;5068804;28;20123;-67
2022/01/31 04:40:56;;;;;;;4.95;1.33;;;;;;;;;;5067998;28;20048;-68
2022/01/31 04:43:23;;;;;;;4.40;1.10;;;;;;;;;;5068339;28;20095;-68
2022/01/31 04:45:49;;;;;;;4.82;1.10;;;;;;;;;;5062486;28;20124;-68
2022/01/31 04:48:16;;;;;;;3.60;1.00;;;;;;;;;;5048392;28;20040;-68
2022/01/31 04:50:43;;;;;;;5.28;1.30;;;;;;;;;;5049039;28;20041;-68
2022/01/31 04:53:09;;;;;;;8.23;1.63;;;;;;;;;;5049126;28;20367;-68
2022/01/31 04:55:35;;;;;;;4.95;1.27;;;;;;;;;;5048733;28;20037;-68
2022/01/31 04:58:02;;;;;;;3.95;1.40;;;;;;;;;;5049153;28;20457;-68
2022/01/31 05:00:28;;;;;;;3.75;1.30;;;;;;;;;;5048840;28;20423;-68
2022/01/31 05:02:54;;;;;;;5.15;1.13;;;;;;;;;;5067567;28;20057;-68
2022/01/31 05:05:20;;;;;;;4.25;1.10;;;;;;;;;;5068713;28;20052;-68
2022/01/31 05:07:46;;;;;;;3.15;1.13;;;;;;;;;;5058226;28;20502;-68
2022/01/31 05:10:12;;;;;;;3.53;1.00;;;;;;;;;;5049157;28;20076;-68
2022/01/31 05:12:39;;;;;;;2.80;0.93;;;;;;;;;;5067348;28;20139;-68
2022/01/31 05:15:05;;;;;;;2.67;0.98;;;;;;;;;;5067513;28;20075;-68
2022/01/31 05:17:31;;;;;;;3.42;0.90;;;;;;;;;;5067251;28;20075;-68
2022/01/31 05:19:57;;;;;;;6.68;1.48;;;;;;;;;;5068650;28;20040;-69
2022/01/31 05:22:23;;;;;;;6.85;1.27;;;;;;;;;;5067941;28;20048;-68
2022/01/31 05:24:49;;;;;;;3.65;1.27;;;;;;;;;;5068676;28;20044;-68
2022/01/31 05:27:15;;;;;;;5.35;1.02;;;;;;;;;;5068237;28;20044;-68
2022/01/31 05:29:41;;;;;;;8.27;1.25;;;;;;;;;;5066214;28;20044;-68
2022/01/31 05:32:07;;;;;;;8.65;1.20;;;;;;;;;;5048175;28;20061;-68
2022/01/31 05:34:34;;;;;;;3.75;1.05;;;;;;;;;;5047554;28;20049;-68
2022/01/31 05:37:00;;;;;;;3.53;1.02;;;;;;;;;;5048505;28;20114;-68
2022/01/31 05:39:26;;;;;;;4.82;0.98;;;;;;;;;;5048259;28;20045;-68
2022/01/31 05:41:56;;;;;;;4.57;1.30;;;;;;;;;;5048223;28;20049;-68
2022/01/31 05:44:22;;;;;;;4.80;1.20;;;;;;;;;;5057837;28;20075;-68
2022/01/31 05:46:48;;;;;;;6.10;1.27;;;;;;;;;;5067995;28;20049;-68
2022/01/31 05:49:14;;;;;;;4.00;1.17;;;;;;;;;;5068001;28;20131;-69
2022/01/31 05:52:01;;;;;;;4.53;1.00;;;;;;;;;;5067820;28;20076;-68
2022/01/31 05:54:27;;;;;;;3.03;1.27;;;;;;;;;;5068087;28;20041;-68
2022/01/31 05:56:54;;;;;;;2.78;1.17;;;;;;;;;;5068178;28;20060;-68
2022/01/31 05:59:20;;;;;;;5.22;1.90;;;;;;;;;;5054092;28;20123;-68
2022/01/31 06:01:46;;;;;;;3.22;1.20;;;;;;;;;;5046979;28;20724;-68
2022/01/31 06:04:12;;;;;;;4.57;1.20;;;;;;;;;;5047883;28;20067;-68
2022/01/31 06:06:38;;;;;;;5.15;1.38;;;;;;;;;;5048177;28;20056;-68
2022/01/31 06:09:04;;;;;;;3.20;0.88;;;;;;;;;;5048141;28;20044;-68
2022/01/31 06:11:33;;;;;;;2.67;0.88;;;;;;;;;;5056675;28;20045;-67
2022/01/31 06:14:00;;;;;;;6.33;1.23;;;;;;;;;;5067549;28;20092;-67
2022/01/31 06:16:27;;;;;;;2.45;0.77;;;;;;;;;;5068069;28;20414;-69
2022/01/31 06:18:53;;;;;;;4.35;1.17;;;;;;;;;;5067983;28;20084;-69
2022/01/31 06:21:19;;;;;;;16.55;2.33;;;;;;;;;;5065807;28;20057;-68
2022/01/31 06:23:45;;;;;;;7.82;1.10;;;;;;;;;;5066256;28;20374;-67
2022/01/31 06:26:11;;;;;;;5.78;1.10;;;;;;;;;;5067639;28;20113;-67
2022/01/31 06:28:37;;;;;;;8.43;1.73;;;;;;;;;;5067664;28;20041;-67
2022/01/31 06:31:03;;;;;;;5.28;1.83;;;;;;;;;;5067766;28;20036;-67
2022/01/31 06:33:29;;;;;;;6.90;1.15;;;;;;;;;;5065780;28;20056;-67
2022/01/31 06:35:56;;;;;;;6.97;1.17;;;;;;;;;;5067412;28;20380;-67
2022/01/31 06:38:22;;;;;;;4.60;1.35;;;;;;;;;;5067063;28;20053;-68
2022/01/31 06:40:49;;;;;;;3.92;1.00;;;;;;;;;;5067150;28;20048;-68
2022/01/31 06:43:15;;;;;;;5.55;1.33;;;;;;;;;;5067539;28;20039;-68
2022/01/31 06:45:41;;;;;;;4.93;1.38;;;;;;;;;;5068804;28;20127;-68
2022/01/31 06:48:07;;;;;;;3.45;1.10;;;;;;;;;;5070533;28;20049;-67
2022/01/31 06:50:33;;;;;;;8.95;1.73;;;;;;;;;;5070702;28;20464;-68
2022/01/31 06:53:01;;;;;;;10.30;1.20;;;;;;;;;;5070943;28;20063;-67
2022/01/31 06:55:29;;;;;;;2.03;0.75;;;;;;;;;;5070293;28;20053;-67
2022/01/31 06:57:55;;;;;;;2.35;0.80;;;;;;;;;;5070033;28;20084;-67
2022/01/31 07:00:21;;;;;;;3.83;0.77;;;;;;;;;;5071148;28;20055;-67
2022/01/31 07:02:48;;;;;;;10.38;1.27;;;;;;;;;;5069229;28;20102;-67
2022/01/31 07:05:14;;;;;;;4.20;1.00;;;;;;;;;;5070806;28;20052;-68
2022/01/31 07:07:40;;;;;;;4.38;1.10;;;;;;;;;;5070690;28;20051;-68
2022/01/31 07:10:07;;;;;;;2.83;1.00;;;;;;;;;;5068849;28;20049;-67
2022/01/31 07:12:36;;;;;;;4.63;1.20;;;;;;;;;;5068858;28;20049;-67
2022/01/31 07:15:03;;;;;;;3.75;0.90;;;;;;;;;;5068529;28;20447;-67
2022/01/31 07:17:30;;;;;;;3.38;0.80;;;;;;;;;;5069620;28;20051;-68
2022/01/31 07:19:56;;;;;;;2.95;1.10;;;;;;;;;;5068184;28;20105;-68
2022/01/31 07:22:30;;;;;;;5.50;1.30;;;;;;;;;;5070069;28;20359;-68
2022/01/31 07:25:03;;;;;;;2.50;0.63;;;;;;;;;;5069840;28;20047;-68
2022/01/31 07:27:29;;;;;;;4.85;1.00;;;;;;;;;;5069293;28;20464;-70
2022/01/31 07:29:55;;;;;;;8.90;1.40;;;;;;;;;;5070232;28;20085;-69
2022/01/31 07:32:21;;;;;;;2.45;0.68;;;;;;;;;;5065602;28;20048;-69
2022/01/31 07:34:50;;;;;;;3.85;1.10;;;;;;;;;;5049537;28;20049;-69
2022/01/31 07:37:16;;;;;;;4.70;1.15;;;;;;;;;;5049616;28;20564;-70
2022/01/31 07:39:43;;;;;;;4.57;1.20;;;;;;;;;;5049571;28;20499;-69
2022/01/31 07:42:10;;;;;;;4.05;0.85;;;;;;;;;;5049512;28;20080;-69
2022/01/31 07:44:36;;;;;;;2.47;0.80;;;;;;;;;;5049216;28;20539;-69
2022/01/31 07:47:03;;;;;;;3.90;0.90;;;;;;;;;;5053728;28;20414;-69
2022/01/31 07:49:29;;;;;;;3.97;1.20;;;;;;;;;;5068114;28;20102;-68
2022/01/31 07:51:56;;;;;;;3.17;1.20;;;;;;;;;;5069741;28;20447;-69
2022/01/31 07:54:22;;;;;;;6.90;1.00;;;;;;;;;;5068146;28;20056;-69
2022/01/31 07:56:48;;;;;;;2.50;1.00;;;;;;;;;;5068388;28;20052;-69
2022/01/31 07:59:14;;;;;;;2.58;1.27;;;;;;;;;;5068980;28;20125;-69
2022/01/31 08:01:41;;;;;;;4.65;0.88;;;;;;;;;;5067570;28;20105;-68
2022/01/31 08:04:07;;;;;;;2.70;1.10;;;;;;;;;;5068881;28;20625;-68
2022/01/31 08:06:33;;;;;;;6.10;1.50;;;;;;;;;;5069197;28;20422;-68
2022/01/31 08:08:59;;;;;;;9.50;1.73;;;;;;;;;;5059691;28;20098;-69
2022/01/31 08:11:31;;;;;;;10.73;1.77;;;;;;;;;;5048148;28;20045;-69
2022/01/31 08:14:01;;;;;;;9.82;1.02;;;;;;;;;;5049034;28;20149;-69
2022/01/31 08:16:27;;;;;;;7.43;1.42;;;;;;;;;;5049484;28;20049;-69
2022/01/31 08:18:53;;;;;;;3.80;1.20;;;;;;;;;;5049983;28;20052;-68
2022/01/31 08:21:23;;;;;;;7.35;1.10;;;;;;;;;;5065048;28;20149;-69
2022/01/31 08:23:50;;;;;;;7.30;0.95;;;;;;;;;;5069482;28;20044;-68
2022/01/31 08:26:17;;;;;;;6.38;1.25;;;;;;;;;;5069635;28;20059;-68
2022/01/31 08:28:54;;;;;;;9.13;1.42;;;;;;;;;;5068582;28;20267;-69
2022/01/31 08:31:34;;;;;;;6.80;1.15;;;;;;;;;;5069635;28;20052;-68
2022/01/31 08:36:27;;;;;;;3.33;0.77;;;;;;;;;;5067021;28;20194;-66
2022/01/31 08:38:54;;;;;;;4.75;1.33;;;;;;;;;;5068440;28;20158;-67
2022/01/31 08:41:20;;;;;;;7.90;1.35;;;;;;;;;;5068748;28;20044;-67
2022/01/31 08:43:48;;;;;;;3.95;1.02;;;;;;;;;;5068107;28;20056;-69
2022/01/31 08:46:14;;;;;;;3.38;0.82;;;;;;;;;;5069462;28;20075;-68
2022/01/31 08:48:41;;;;;;;3.88;0.68;;;;;;;;;;5069356;28;20040;-69
2022/01/31 08:51:08;;;;;;;5.07;0.90;;;;;;;;;;5064206;28;20037;-69
2022/01/31 08:53:35;;;;;;;4.47;1.20;;;;;;;;;;5068843;28;20107;-68
2022/01/31 08:56:02;;;;;;;2.17;0.60;;;;;;;;;;5067620;28;20048;-68
2022/01/31 08:58:29;;;;;;;2.92;0.93;;;;;;;;;;5068652;28;20060;-69
2022/01/31 09:01:00;;;;;;;3.35;0.80;;;;;;;;;;5068411;28;20041;-69
2022/01/31 09:06:02;;;;;;;6.15;0.93;;;;;;;;;;5064484;28;20510;-69
2022/01/31 09:08:28;;;;;;;1.88;0.60;;;;;;;;;;5047387;28;20044;-69
2022/01/31 09:10:54;;;;;;;3.45;0.90;;;;;;;;;;5048911;28;20426;-69
2022/01/31 09:13:20;;;;;;;2.83;0.82;;;;;;;;;;5068207;28;20486;-68
2022/01/31 09:15:47;;;;;;;2.25;0.88;;;;;;;;;;5050136;28;20499;-68
2022/01/31 09:18:13;;;;;;;3.40;0.75;;;;;;;;;;5048971;28;20049;-69
2022/01/31 09:20:39;;;;;;;3.30;0.70;;;;;;;;;;5053025;28;20047;-69
2022/01/31 09:23:05;;;;;;;3.50;0.70;;;;;;;;;;5068855;28;20036;-68
2022/01/31 09:25:32;;;;;;;1.63;0.52;;;;;;;;;;5068842;28;20044;-69
2022/01/31 09:28:00;;;;;;;3.00;1.00;;;;;;;;;;5068201;28;20499;-68
2022/01/31 09:30:27;;;;;;;2.50;0.82;;;;;;;;;;5068919;28;20102;-68
2022/01/31 09:32:57;;;;;;;2.08;0.80;;;;;;;;;;5068074;28;20060;-68
2022/01/31 09:35:25;;;;;;;3.45;0.82;;;;;;;;;;5068522;28;20041;-69
2022/01/31 09:37:51;;;;;;;4.03;1.13;;;;;;;;;;5068601;28;20044;-69
2022/01/31 09:40:20;;;;;;;3.25;0.80;;;;;;;;;;5068004;28;20079;-68
2022/01/31 09:43:05;;;;;;;2.53;1.17;;;;;;;;;;5061785;28;20136;-70
2022/01/31 09:46:31;;;;;;;3.30;1.50;;;;;;;;;;5061348;28;20074;-68
2022/01/31 09:48:43;;;;;;;4.70;1.60;;;;;;;;;;5062294;28;20048;-69
2022/01/31 09:51:13;;;;;;;4.57;1.80;;;;;;;;;;5068513;28;20076;-69
2022/01/31 09:53:39;;;;;;;7.38;2.35;;;;;;;;;;5059239;28;20049;-69
2022/01/31 09:56:08;;;;;;;4.13;2.20;;;;;;;;;;5058628;28;20048;-69
2022/01/31 09:58:34;;;;;;;6.18;3.08;;;;;;;;;;5060575;28;20056;-69
2022/01/31 10:01:11;;;;;;;6.05;2.85;;;;;;;;;;5056182;28;20051;-68
2022/01/31 10:03:47;;;;;;;6.88;3.28;;;;;;;;;;5063696;28;20132;-68
2022/01/31 10:06:20;;;;;;;6.55;3.13;;;;;;;;;;5056139;28;20092;-68
2022/01/31 10:08:47;;;;;;;9.05;3.70;;;;;;;;;;5059859;28;20041;-69
2022/01/31 10:11:28;;;;;;;7.15;4.22;;;;;;;;;;5055153;28;20056;-69
2022/01/31 10:16:45;;;;;;;8.27;4.00;;;;;;;;;;5061146;28;20094;-68
2022/01/31 10:19:12;;;;;;;8.25;4.00;;;;;;;;;;5053074;28;20053;-69
2022/01/31 10:22:13;;;;;;;8.13;4.15;;;;;;;;;;5062918;28;20119;-68
2022/01/31 10:24:40;;;;;;;7.00;4.20;;;;;;;;;;5026897;28;20053;-69
2022/01/31 10:27:17;;;;;;;6.85;4.43;;;;;;;;;;5053340;28;20144;-69
2022/01/31 10:29:44;;;;;;;9.38;5.28;;;;;;;;;;5064289;28;20048;-68
2022/01/31 10:32:12;;;;;;;9.23;5.43;;;;;;;;;;5062676;28;20087;-68
2022/01/31 10:34:39;;;;;;;9.10;5.95;;;;;;;;;;5071866;28;20053;-68
2022/01/31 10:37:07;;;;;;;10.40;6.25;;;;;;;;;;5071441;28;20131;-68
2022/01/31 10:53:47;;;;;;;16.17;11.07;;;;;;;;;;5069474;28;20135;-68
2022/01/31 10:56:14;;;;;;;15.65;11.38;;;;;;;;;;5071580;28;20486;-69
2022/01/31 10:59:06;;;;;;;16.42;11.35;;;;;;;;;;5071728;28;20139;-68
2022/01/31 11:01:32;;;;;;;16.17;10.77;;;;;;;;;;5071210;28;20472;-68
2022/01/31 11:04:03;;;;;;;18.70;10.93;;;;;;;;;;5070075;28;20044;-68
2022/01/31 11:06:29;;;;;;;15.32;9.63;;;;;;;;;;5071802;28;20098;-68
2022/01/31 11:09:03;;;;;;;14.85;9.68;;;;;;;;;;5069788;28;20040;-68
2022/01/31 11:11:31;;;;;;;16.42;9.52;;;;;;;;;;5071165;28;20047;-68
2022/01/31 11:13:59;;;;;;;14.85;8.73;;;;;;;;;;5069627;28;20091;-68
2022/01/31 11:16:25;;;;;;;13.98;9.30;;;;;;;;;;5070957;28;20060;-68
2022/01/31 11:18:53;;;;;;;13.55;8.35;;;;;;;;;;5070998;28;20084;-69
2022/01/31 11:21:20;;;;;;;12.75;7.97;;;;;;;;;;5065130;28;20098;-68
2022/01/31 11:23:50;;;;;;;12.73;7.97;;;;;;;;;;5071213;28;20087;-68
2022/01/31 11:26:20;;;;;;;12.75;7.22;;;;;;;;;;5070264;28;20052;-68
2022/01/31 11:28:47;;;;;;;14.27;8.10;;;;;;;;;;5071037;28;20048;-68
2022/01/31 11:31:14;;;;;;;13.13;7.55;;;;;;;;;;5054011;28;20060;-67
2022/01/31 11:33:40;;;;;;;23.38;7.78;;;;;;;;;;5069203;28;20155;-65
2022/01/31 11:36:06;;;;;;;17.80;6.97;;;;;;;;;;5070501;28;20422;-67
2022/01/31 11:38:33;;;;;;;16.80;6.93;;;;;;;;;;5070567;28;20357;-67
2022/01/31 11:41:03;;;;;;;22.40;7.25;;;;;;;;;;5070418;28;20049;-67
2022/01/31 11:43:31;;;;;;;15.25;6.70;;;;;;;;;;5069637;28;20048;-67
2022/01/31 11:45:59;;;;;;;15.02;5.90;;;;;;;;;;5069982;28;20045;-66
2022/01/31 11:48:26;;;;;;;15.65;6.05;;;;;;;;;;5070354;28;20068;-66
2022/01/31 11:51:02;;;;;;;12.80;6.10;;;;;;;;;;5070260;28;20112;-67
2022/01/31 11:53:35;;;;;;;15.10;5.60;;;;;;;;;;5068382;28;20071;-66
2022/01/31 11:56:09;;;;;;;10.00;5.45;;;;;;;;;;5070235;28;20142;-66
2022/01/31 11:58:36;;;;;;;11.50;5.25;;;;;;;;;;5070152;28;20076;-67
2022/01/31 12:01:03;;;;;;;10.00;5.25;;;;;;;;;;5070245;28;20086;-67
2022/01/31 12:03:30;;;;;;;20.73;5.93;;;;;;;;;;5068216;28;20076;-67
2022/01/31 12:05:56;;;;;;;15.35;5.50;;;;;;;;;;5069395;28;20418;-67
2022/01/31 12:08:33;;;;;;;12.35;4.60;;;;;;;;;;5070298;28;20036;-67
2022/01/31 12:11:11;;;;;;;11.23;4.88;;;;;;;;;;5069942;28;20040;-67
2022/01/31 12:13:45;;;;;;;9.93;4.72;;;;;;;;;;5069355;28;20041;-66
2022/01/31 12:22:01;;;;;;;8.55;3.78;;;;;;;;;;5068984;28;20048;-68
2022/01/31 12:24:33;;;;;;;10.18;4.70;;;;;;;;;;5069453;28;20040;-68
2022/01/31 12:27:06;;;;;;;12.00;4.05;;;;;;;;;;5068770;28;20053;-67
2022/01/31 12:29:34;;;;;;;8.32;3.50;;;;;;;;;;5067768;28;20402;-68
2022/01/31 12:32:10;;;;;;;7.22;3.65;;;;;;;;;;5066834;28;20044;-67
2022/01/31 12:34:58;;;;;;;8.80;4.05;;;;;;;;;;5049227;28;20134;-67
2022/01/31 12:37:34;;;;;;;8.90;4.00;;;;;;;;;;5065344;28;20048;-68
2022/01/31 12:40:04;;;;;;;9.20;3.60;;;;;;;;;;5069273;28;20056;-70
2022/01/31 12:42:55;;;;;;;10.05;3.50;;;;;;;;;;5066745;28;20082;-66
2022/01/31 12:45:27;;;;;;;5.93;3.20;;;;;;;;;;5049521;28;20214;-66
2022/01/31 12:48:12;;;;;;;11.40;3.92;;;;;;;;;;5050509;28;20045;-66
2022/01/31 12:50:51;;;;;;;8.05;2.95;;;;;;;;;;5049492;28;20053;-66
2022/01/31 12:56:06;;;;;;;10.75;3.03;;;;;;;;;;5049175;28;20045;-68
2022/01/31 12:58:32;;;;;;;12.50;3.28;;;;;;;;;;5062370;28;20049;-68
2022/01/31 13:00:58;;;;;;;7.65;3.00;;;;;;;;;;5068660;28;20076;-67
2022/01/31 13:03:34;;;;;;;7.20;2.97;;;;;;;;;;5068406;28;20051;-69
2022/01/31 13:06:00;;;;;;;7.53;2.88;;;;;;;;;;5068748;28;20410;-69
2022/01/31 13:08:26;;;;;;;8.95;3.25;;;;;;;;;;5068080;28;20060;-67
2022/01/31 13:10:55;;;;;;;10.32;2.95;;;;;;;;;;5067920;28;20398;-67
2022/01/31 13:13:34;;;;;;;5.32;2.40;;;;;;;;;;5066989;28;20113;-69
2022/01/31 13:16:07;;;;;;;8.90;2.38;;;;;;;;;;5068445;28;20087;-67
2022/01/31 13:18:33;;;;;;;7.82;2.60;;;;;;;;;;5068547;28;20047;-66
2022/01/31 13:21:02;;;;;;;10.93;2.47;;;;;;;;;;5061496;28;20053;-68
2022/01/31 13:23:29;;;;;;;6.28;2.47;;;;;;;;;;5050948;28;20644;-68
2022/01/31 13:25:59;;;;;;;7.20;2.80;;;;;;;;;;5068629;28;20040;-67
2022/01/31 13:28:25;;;;;;;8.85;3.20;;;;;;;;;;5067946;28;20138;-67
2022/01/31 13:30:51;;;;;;;7.20;2.83;;;;;;;;;;5067571;28;20070;-68
2022/01/31 13:33:18;;;;;;;7.55;2.92;;;;;;;;;;5067818;28;20057;-69
2022/01/31 13:35:44;;;;;;;11.85;3.20;;;;;;;;;;5059290;28;20051;-69
2022/01/31 13:38:12;;;;;;;6.88;2.55;;;;;;;;;;5051158;28;20041;-68
2022/01/31 13:40:43;;;;;;;8.93;2.65;;;;;;;;;;5068640;28;20225;-69
2022/01/31 13:43:15;;;;;;;5.45;2.00;;;;;;;;;;5068318;28;20056;-68
2022/01/31 13:46:01;;;;;;;8.68;2.13;;;;;;;;;;5068196;28;20044;-69
2022/01/31 13:48:52;;;;;;;7.68;2.22;;;;;;;;;;5066847;28;20044;-69
2022/01/31 13:51:44;;;;;;;7.65;2.22;;;;;;;;;;5068698;28;20094;-68
2022/01/31 13:54:14;;;;;;;8.13;2.42;;;;;;;;;;5068409;28;20506;-69
2022/01/31 13:56:44;;;;;;;7.70;2.05;;;;;;;;;;5072794;28;20067;-69
2022/01/31 13:59:10;;;;;;;4.95;1.70;;;;;;;;;;5070516;28;20441;-69
2022/01/31 14:01:36;;;;;;;6.88;1.63;;;;;;;;;;5072495;28;20044;-68
2022/01/31 14:04:03;;;;;;;6.50;2.20;;;;;;;;;;5072533;28;20040;-68
2022/01/31 14:06:33;;;;;;;5.28;1.60;;;;;;;;;;5072348;28;20054;-69
2022/01/31 14:09:00;;;;;;;7.43;2.03;;;;;;;;;;5072670;28;20048;-71
2022/01/31 14:11:26;;;;;;;5.53;2.00;;;;;;;;;;5059494;28;20091;-70
2022/01/31 14:13:54;;;;;;;7.95;2.15;;;;;;;;;;5058685;28;20406;-72
2022/01/31 14:16:24;;;;;;;6.20;1.85;;;;;;;;;;5068411;28;20044;-71
2022/01/31 14:18:50;;;;;;;9.05;1.75;;;;;;;;;;5071655;28;20048;-70
2022/01/31 14:21:17;;;;;;;3.97;1.73;;;;;;;;;;5071150;28;20041;-70
2022/01/31 14:23:44;;;;;;;7.38;1.77;;;;;;;;;;5071629;28;20045;-69
2022/01/31 14:26:12;;;;;;;6.20;1.80;;;;;;;;;;5071935;28;20048;-70
2022/01/31 14:28:45;;;;;;;3.67;1.60;;;;;;;;;;5071384;28;20119;-70
2022/01/31 14:31:14;;;;;;;5.22;1.75;;;;;;;;;;5066212;28;20132;-71
2022/01/31 14:33:48;;;;;;;7.45;2.40;;;;;;;;;;5063453;28;20088;-70
2022/01/31 14:36:15;;;;;;;7.05;1.90;;;;;;;;;;5069066;28;20406;-70
2022/01/31 14:39:13;;;;;;;6.75;2.25;;;;;;;;;;5060325;28;20044;-70
2022/01/31 14:47:17;;;;;;;5.55;1.55;;;;;;;;;;5069985;28;20059;-67
2022/01/31 14:49:44;;;;;;;5.47;1.70;;;;;;;;;;5071257;28;20392;-68
2022/01/31 14:52:10;;;;;;;4.22;1.58;;;;;;;;;;5071123;28;20056;-69
2022/01/31 14:54:40;;;;;;;6.95;1.75;;;;;;;;;;5051749;28;20041;-69
2022/01/31 14:57:07;;;;;;;6.45;1.90;;;;;;;;;;5066126;28;20040;-69
2022/01/31 14:59:33;;;;;;;4.35;1.35;;;;;;;;;;5070583;28;20040;-69
2022/01/31 15:01:59;;;;;;;5.75;1.55;;;;;;;;;;5071330;28;20392;-69
2022/01/31 15:04:26;;;;;;;5.00;1.60;;;;;;;;;;5070916;28;20044;-68
2022/01/31 15:06:52;;;;;;;5.07;1.63;;;;;;;;;;5070485;28;20048;-69
2022/01/31 15:09:18;;;;;;;3.83;1.33;;;;;;;;;;5068237;28;20044;-69
2022/01/31 15:11:45;;;;;;;4.13;1.33;;;;;;;;;;5071100;28;20045;-69
2022/01/31 15:14:12;;;;;;;5.85;1.42;;;;;;;;;;5070659;28;20162;-69
2022/01/31 15:16:39;;;;;;;4.03;1.58;;;;;;;;;;5070025;28;20051;-70
2022/01/31 15:19:05;;;;;;;4.40;1.20;;;;;;;;;;5068182;28;20119;-68
2022/01/31 15:21:33;;;;;;;5.68;1.48;;;;;;;;;;5070131;28;20039;-69
2022/01/31 15:24:03;;;;;;;5.85;1.45;;;;;;;;;;5069732;28;20055;-70